sensor_id;sensor_type;location;lat;lon;timestamp;temperature;humidity
20728;DHT22;10525;50.154;8.198;2022-10-31T00:01:18;8.90;99.90
20728;DHT22;10525;50.154;8.198;2022-10-31T00:03:45;8.90;99.90
20728;DHT22;10525;50.154;8.198;2022-10-31T00:06:12;8.80;99.90
20728;DHT22;10525;50.154;8.198;2022-10-31T00:08:39;8.90;99.90
20728;DHT22;10525;50.154;8.198;2022-10-31T00:11:10;8.80;99.90
20728;DHT22;10525;50.154;8.198;2022-10-31T00:13:37;8.80;99.90
20728;DHT22;10525;50.154;8.198;2022-10-31T00:16:04;8.90;99.90
20728;DHT22;10525;50.154;8.198;2022-10-31T00:18:31;8.90;99.90
20728;DHT22;10525;50.154;8.198;2022-10-31T00:21:01;8.80;99.90
20728;DHT22;10525;50.154;8.198;2022-10-31T00:23:27;8.80;99.90
20728;DHT22;10525;50.154;8.198;2022-10-31T00:25:59;8.80;99.90
20728;DHT22;10525;50.154;8.198;2022-10-31T00:28:27;8.90;99.90
20728;DHT22;10525;50.154;8.198;2022-10-31T00:30:58;8.90;99.90
20728;DHT22;10525;50.154;8.198;2022-10-31T00:33:25;8.90;99.90
20728;DHT22;10525;50.154;8.198;2022-10-31T00:35:52;8.90;99.90
20728;DHT22;10525;50.154;8.198;2022-10-31T00:38:18;8.90;99.90
20728;DHT22;10525;50.154;8.198;2022-10-31T00:40:45;8.80;99.90
20728;DHT22;10525;50.154;8.198;2022-10-31T00:43:12;8.90;99.90
20728;DHT22;10525;50.154;8.198;2022-10-31T00:45:41;8.90;99.90
20728;DHT22;10525;50.154;8.198;2022-10-31T00:48:07;8.90;99.90
20728;DHT22;10525;50.154;8.198;2022-10-31T00:50:34;8.90;99.90
20728;DHT22;10525;50.154;8.198;2022-10-31T00:53:01;8.90;99.90
20728;DHT22;10525;50.154;8.198;2022-10-31T00:55:27;9.00;99.90
20728;DHT22;10525;50.154;8.198;2022-10-31T00:57:54;9.00;99.90
20728;DHT22;10525;50.154;8.198;2022-10-31T01:00:21;8.90;99.90
20728;DHT22;10525;50.154;8.198;2022-10-31T01:02:49;9.00;99.90
20728;DHT22;10525;50.154;8.198;2022-10-31T01:05:16;9.00;99.90
20728;DHT22;10525;50.154;8.198;2022-10-31T01:07:42;9.00;99.90
20728;DHT22;10525;50.154;8.198;2022-10-31T01:10:10;9.00;99.90
20728;DHT22;10525;50.154;8.198;2022-10-31T01:12:37;9.00;99.90
20728;DHT22;10525;50.154;8.198;2022-10-31T01:15:05;8.90;99.90
20728;DHT22;10525;50.154;8.198;2022-10-31T01:17:32;8.90;99.90
20728;DHT22;10525;50.154;8.198;2022-10-31T01:20:00;8.90;99.90
20728;DHT22;10525;50.154;8.198;2022-10-31T01:22:27;9.00;99.90
20728;DHT22;10525;50.154;8.198;2022-10-31T01:24:53;9.00;99.90
20728;DHT22;10525;50.154;8.198;2022-10-31T01:27:20;9.00;99.90
20728;DHT22;10525;50.154;8.198;2022-10-31T01:29:47;9.10;99.90
20728;DHT22;10525;50.154;8.198;2022-10-31T01:32:13;9.10;99.90
20728;DHT22;10525;50.154;8.198;2022-10-31T01:34:40;9.10;99.90
20728;DHT22;10525;50.154;8.198;2022-10-31T01:37:08;9.10;99.90
20728;DHT22;10525;50.154;8.198;2022-10-31T01:39:35;9.20;99.90
20728;DHT22;10525;50.154;8.198;2022-10-31T01:42:02;9.20;99.90
20728;DHT22;10525;50.154;8.198;2022-10-31T01:44:54;9.10;99.90
20728;DHT22;10525;50.154;8.198;2022-10-31T01:47:27;9.10;99.90
20728;DHT22;10525;50.154;8.198;2022-10-31T01:50:00;9.00;99.90
20728;DHT22;10525;50.154;8.198;2022-10-31T01:52:32;9.00;99.90
20728;DHT22;10525;50.154;8.198;2022-10-31T01:55:01;9.00;99.90
20728;DHT22;10525;50.154;8.198;2022-10-31T01:57:32;9.00;99.90
20728;DHT22;10525;50.154;8.198;2022-10-31T02:00:03;9.10;99.90
20728;DHT22;10525;50.154;8.198;2022-10-31T02:02:30;9.10;99.90
20728;DHT22;10525;50.154;8.198;2022-10-31T02:05:00;9.10;99.90
20728;DHT22;10525;50.154;8.198;2022-10-31T02:07:32;9.00;99.90
20728;DHT22;10525;50.154;8.198;2022-10-31T02:10:01;9.10;99.90
20728;DHT22;10525;50.154;8.198;2022-10-31T02:12:29;9.00;99.90
20728;DHT22;10525;50.154;8.198;2022-10-31T02:14:56;9.00;99.90
20728;DHT22;10525;50.154;8.198;2022-10-31T02:17:23;9.00;99.90
20728;DHT22;10525;50.154;8.198;2022-10-31T02:19:54;9.00;99.90
20728;DHT22;10525;50.154;8.198;2022-10-31T02:22:26;9.00;99.90
20728;DHT22;10525;50.154;8.198;2022-10-31T02:25:08;8.90;99.90
20728;DHT22;10525;50.154;8.198;2022-10-31T02:27:55;8.90;99.90
20728;DHT22;10525;50.154;8.198;2022-10-31T02:30:36;9.00;99.90
20728;DHT22;10525;50.154;8.198;2022-10-31T02:33:15;8.90;99.90
20728;DHT22;10525;50.154;8.198;2022-10-31T02:35:54;9.00;99.90
20728;DHT22;10525;50.154;8.198;2022-10-31T02:38:29;8.90;99.90
20728;DHT22;10525;50.154;8.198;2022-10-31T02:41:01;8.90;99.90
20728;DHT22;10525;50.154;8.198;2022-10-31T02:43:35;8.90;99.90
20728;DHT22;10525;50.154;8.198;2022-10-31T02:46:08;9.00;99.90
20728;DHT22;10525;50.154;8.198;2022-10-31T02:48:40;9.00;99.90
20728;DHT22;10525;50.154;8.198;2022-10-31T02:51:08;9.00;99.90
20728;DHT22;10525;50.154;8.198;2022-10-31T02:53:36;9.00;99.90
20728;DHT22;10525;50.154;8.198;2022-10-31T02:56:07;9.00;99.90
20728;DHT22;10525;50.154;8.198;2022-10-31T02:58:38;9.00;99.90
20728;DHT22;10525;50.154;8.198;2022-10-31T03:01:37;9.00;99.90
20728;DHT22;10525;50.154;8.198;2022-10-31T03:04:29;9.00;99.90
20728;DHT22;10525;50.154;8.198;2022-10-31T03:07:03;9.00;99.90
20728;DHT22;10525;50.154;8.198;2022-10-31T03:09:41;9.00;99.90
20728;DHT22;10525;50.154;8.198;2022-10-31T03:12:12;9.00;99.90
20728;DHT22;10525;50.154;8.198;2022-10-31T03:14:43;9.00;99.90
20728;DHT22;10525;50.154;8.198;2022-10-31T03:17:14;9.00;99.90
20728;DHT22;10525;50.154;8.198;2022-10-31T03:19:48;8.90;99.90
20728;DHT22;10525;50.154;8.198;2022-10-31T03:22:17;8.90;99.90
20728;DHT22;10525;50.154;8.198;2022-10-31T03:24:45;8.90;99.90
20728;DHT22;10525;50.154;8.198;2022-10-31T03:27:16;8.90;99.90
20728;DHT22;10525;50.154;8.198;2022-10-31T03:29:45;8.90;99.90
20728;DHT22;10525;50.154;8.198;2022-10-31T03:32:18;8.90;99.90
20728;DHT22;10525;50.154;8.198;2022-10-31T03:34:47;8.90;99.90
20728;DHT22;10525;50.154;8.198;2022-10-31T03:37:18;8.80;99.90
20728;DHT22;10525;50.154;8.198;2022-10-31T03:39:47;8.90;99.90
20728;DHT22;10525;50.154;8.198;2022-10-31T03:42:17;8.80;99.90
20728;DHT22;10525;50.154;8.198;2022-10-31T03:44:48;8.90;99.90
20728;DHT22;10525;50.154;8.198;2022-10-31T03:47:16;8.80;99.90
20728;DHT22;10525;50.154;8.198;2022-10-31T03:49:43;8.80;99.90
20728;DHT22;10525;50.154;8.198;2022-10-31T03:52:18;8.70;99.90
20728;DHT22;10525;50.154;8.198;2022-10-31T03:54:48;8.70;99.90
20728;DHT22;10525;50.154;8.198;2022-10-31T03:57:19;8.70;99.90
20728;DHT22;10525;50.154;8.198;2022-10-31T03:59:50;8.70;99.90
20728;DHT22;10525;50.154;8.198;2022-10-31T04:02:20;8.70;99.90
20728;DHT22;10525;50.154;8.198;2022-10-31T04:04:49;8.80;99.90
20728;DHT22;10525;50.154;8.198;2022-10-31T04:07:19;8.70;99.90
20728;DHT22;10525;50.154;8.198;2022-10-31T04:09:48;8.80;99.90
20728;DHT22;10525;50.154;8.198;2022-10-31T04:12:17;8.80;99.90
20728;DHT22;10525;50.154;8.198;2022-10-31T04:14:46;8.80;99.90
20728;DHT22;10525;50.154;8.198;2022-10-31T04:17:16;8.80;99.90
20728;DHT22;10525;50.154;8.198;2022-10-31T04:19:43;8.70;99.90
20728;DHT22;10525;50.154;8.198;2022-10-31T04:22:10;8.70;99.90
20728;DHT22;10525;50.154;8.198;2022-10-31T04:24:40;8.70;99.90
20728;DHT22;10525;50.154;8.198;2022-10-31T04:27:07;8.80;99.90
20728;DHT22;10525;50.154;8.198;2022-10-31T04:29:33;8.70;99.90
20728;DHT22;10525;50.154;8.198;2022-10-31T04:32:00;8.80;99.90
20728;DHT22;10525;50.154;8.198;2022-10-31T04:34:27;8.80;99.90
20728;DHT22;10525;50.154;8.198;2022-10-31T04:36:53;8.80;99.90
20728;DHT22;10525;50.154;8.198;2022-10-31T04:39:20;8.70;99.90
20728;DHT22;10525;50.154;8.198;2022-10-31T04:41:48;8.70;99.90
20728;DHT22;10525;50.154;8.198;2022-10-31T04:44:15;8.70;99.90
20728;DHT22;10525;50.154;8.198;2022-10-31T04:46:42;8.70;99.90
20728;DHT22;10525;50.154;8.198;2022-10-31T04:49:08;8.60;99.90
20728;DHT22;10525;50.154;8.198;2022-10-31T04:51:35;8.60;99.90
20728;DHT22;10525;50.154;8.198;2022-10-31T04:54:02;8.60;99.90
20728;DHT22;10525;50.154;8.198;2022-10-31T04:56:29;8.50;99.90
20728;DHT22;10525;50.154;8.198;2022-10-31T04:58:57;8.50;99.90
20728;DHT22;10525;50.154;8.198;2022-10-31T05:01:24;8.50;99.90
20728;DHT22;10525;50.154;8.198;2022-10-31T05:03:50;8.50;99.90
20728;DHT22;10525;50.154;8.198;2022-10-31T05:06:17;8.50;99.90
20728;DHT22;10525;50.154;8.198;2022-10-31T05:08:45;8.50;99.90
20728;DHT22;10525;50.154;8.198;2022-10-31T05:11:11;8.40;99.90
20728;DHT22;10525;50.154;8.198;2022-10-31T05:13:38;8.40;99.90
20728;DHT22;10525;50.154;8.198;2022-10-31T05:16:07;8.40;99.90
20728;DHT22;10525;50.154;8.198;2022-10-31T05:18:33;8.30;99.90
20728;DHT22;10525;50.154;8.198;2022-10-31T05:21:00;8.40;99.90
20728;DHT22;10525;50.154;8.198;2022-10-31T05:23:27;8.40;99.90
20728;DHT22;10525;50.154;8.198;2022-10-31T05:25:53;8.40;99.90
20728;DHT22;10525;50.154;8.198;2022-10-31T05:28:20;8.30;99.90
20728;DHT22;10525;50.154;8.198;2022-10-31T05:30:47;8.30;99.90
20728;DHT22;10525;50.154;8.198;2022-10-31T05:33:15;8.20;99.90
20728;DHT22;10525;50.154;8.198;2022-10-31T05:35:41;8.20;99.90
20728;DHT22;10525;50.154;8.198;2022-10-31T05:38:08;8.10;99.90
20728;DHT22;10525;50.154;8.198;2022-10-31T05:40:35;8.20;99.90
20728;DHT22;10525;50.154;8.198;2022-10-31T05:43:01;8.10;99.90
20728;DHT22;10525;50.154;8.198;2022-10-31T05:45:28;8.20;99.90
20728;DHT22;10525;50.154;8.198;2022-10-31T05:47:56;8.20;99.90
20728;DHT22;10525;50.154;8.198;2022-10-31T05:50:26;8.10;99.90
20728;DHT22;10525;50.154;8.198;2022-10-31T05:52:57;8.10;99.90
20728;DHT22;10525;50.154;8.198;2022-10-31T05:55:24;8.10;99.90
20728;DHT22;10525;50.154;8.198;2022-10-31T05:57:51;8.00;99.90
20728;DHT22;10525;50.154;8.198;2022-10-31T06:00:18;8.00;99.90
20728;DHT22;10525;50.154;8.198;2022-10-31T06:02:45;7.90;99.90
20728;DHT22;10525;50.154;8.198;2022-10-31T06:05:12;8.00;99.90
20728;DHT22;10525;50.154;8.198;2022-10-31T06:07:40;7.90;99.90
20728;DHT22;10525;50.154;8.198;2022-10-31T06:10:08;8.00;99.90
20728;DHT22;10525;50.154;8.198;2022-10-31T06:12:35;8.00;99.90
20728;DHT22;10525;50.154;8.198;2022-10-31T06:15:04;8.00;99.90
20728;DHT22;10525;50.154;8.198;2022-10-31T06:17:31;8.00;99.90
20728;DHT22;10525;50.154;8.198;2022-10-31T06:19:58;8.00;99.90
20728;DHT22;10525;50.154;8.198;2022-10-31T06:22:25;8.10;99.90
20728;DHT22;10525;50.154;8.198;2022-10-31T06:24:53;8.10;99.90
20728;DHT22;10525;50.154;8.198;2022-10-31T06:27:19;8.20;99.90
20728;DHT22;10525;50.154;8.198;2022-10-31T06:29:46;8.20;99.90
20728;DHT22;10525;50.154;8.198;2022-10-31T06:32:13;8.20;99.90
20728;DHT22;10525;50.154;8.198;2022-10-31T06:34:40;8.30;99.90
20728;DHT22;10525;50.154;8.198;2022-10-31T06:37:07;8.40;99.90
20728;DHT22;10525;50.154;8.198;2022-10-31T06:39:34;8.50;99.90
20728;DHT22;10525;50.154;8.198;2022-10-31T06:42:03;8.60;99.90
20728;DHT22;10525;50.154;8.198;2022-10-31T06:44:29;8.60;99.90
20728;DHT22;10525;50.154;8.198;2022-10-31T06:46:56;8.70;99.90
20728;DHT22;10525;50.154;8.198;2022-10-31T06:49:23;8.80;99.90
20728;DHT22;10525;50.154;8.198;2022-10-31T06:51:50;8.90;99.90
20728;DHT22;10525;50.154;8.198;2022-10-31T06:54:17;9.00;99.90
20728;DHT22;10525;50.154;8.198;2022-10-31T06:56:45;9.10;99.90
20728;DHT22;10525;50.154;8.198;2022-10-31T06:59:14;9.20;99.90
20728;DHT22;10525;50.154;8.198;2022-10-31T07:01:41;9.20;99.90
20728;DHT22;10525;50.154;8.198;2022-10-31T07:04:08;9.30;99.90
20728;DHT22;10525;50.154;8.198;2022-10-31T07:06:35;9.40;99.90
20728;DHT22;10525;50.154;8.198;2022-10-31T07:09:02;9.40;99.90
20728;DHT22;10525;50.154;8.198;2022-10-31T07:11:28;9.50;99.90
20728;DHT22;10525;50.154;8.198;2022-10-31T07:13:56;9.60;99.90
20728;DHT22;10525;50.154;8.198;2022-10-31T07:16:24;9.80;99.90
20728;DHT22;10525;50.154;8.198;2022-10-31T07:18:50;9.90;99.90
20728;DHT22;10525;50.154;8.198;2022-10-31T07:21:17;9.90;99.90
20728;DHT22;10525;50.154;8.198;2022-10-31T07:23:44;9.90;99.90
20728;DHT22;10525;50.154;8.198;2022-10-31T07:26:13;10.00;99.90
20728;DHT22;10525;50.154;8.198;2022-10-31T07:28:40;10.10;99.90
20728;DHT22;10525;50.154;8.198;2022-10-31T07:31:06;10.20;99.90
20728;DHT22;10525;50.154;8.198;2022-10-31T07:33:34;10.30;99.90
20728;DHT22;10525;50.154;8.198;2022-10-31T07:36:01;10.40;99.90
20728;DHT22;10525;50.154;8.198;2022-10-31T07:38:28;10.60;99.90
20728;DHT22;10525;50.154;8.198;2022-10-31T07:40:54;10.70;99.90
20728;DHT22;10525;50.154;8.198;2022-10-31T07:43:21;10.80;99.90
20728;DHT22;10525;50.154;8.198;2022-10-31T07:45:51;11.00;99.90
20728;DHT22;10525;50.154;8.198;2022-10-31T07:48:19;11.20;99.90
20728;DHT22;10525;50.154;8.198;2022-10-31T07:50:47;11.30;99.90
20728;DHT22;10525;50.154;8.198;2022-10-31T07:53:14;11.30;99.90
20728;DHT22;10525;50.154;8.198;2022-10-31T07:55:42;11.50;99.90
20728;DHT22;10525;50.154;8.198;2022-10-31T07:58:10;11.70;99.90
20728;DHT22;10525;50.154;8.198;2022-10-31T08:00:38;11.80;99.90
20728;DHT22;10525;50.154;8.198;2022-10-31T08:03:07;11.90;99.90
20728;DHT22;10525;50.154;8.198;2022-10-31T08:05:34;12.00;99.90
20728;DHT22;10525;50.154;8.198;2022-10-31T08:08:03;12.20;99.90
20728;DHT22;10525;50.154;8.198;2022-10-31T08:10:30;12.50;99.90
20728;DHT22;10525;50.154;8.198;2022-10-31T08:12:58;12.70;99.90
20728;DHT22;10525;50.154;8.198;2022-10-31T08:15:26;12.70;99.90
20728;DHT22;10525;50.154;8.198;2022-10-31T08:17:53;12.90;99.90
20728;DHT22;10525;50.154;8.198;2022-10-31T08:20:20;12.80;99.90
20728;DHT22;10525;50.154;8.198;2022-10-31T08:22:54;13.00;99.90
20728;DHT22;10525;50.154;8.198;2022-10-31T08:25:23;13.10;99.90
20728;DHT22;10525;50.154;8.198;2022-10-31T08:27:50;13.30;99.90
20728;DHT22;10525;50.154;8.198;2022-10-31T08:30:18;13.50;99.90
20728;DHT22;10525;50.154;8.198;2022-10-31T08:32:45;13.70;99.90
20728;DHT22;10525;50.154;8.198;2022-10-31T08:35:12;13.80;99.90
20728;DHT22;10525;50.154;8.198;2022-10-31T08:37:39;13.90;99.90
20728;DHT22;10525;50.154;8.198;2022-10-31T08:40:06;14.00;99.90
20728;DHT22;10525;50.154;8.198;2022-10-31T08:42:34;14.10;99.90
20728;DHT22;10525;50.154;8.198;2022-10-31T08:45:01;14.20;99.90
20728;DHT22;10525;50.154;8.198;2022-10-31T08:47:28;14.40;99.90
20728;DHT22;10525;50.154;8.198;2022-10-31T08:49:55;14.60;99.90
20728;DHT22;10525;50.154;8.198;2022-10-31T08:52:23;14.80;99.90
20728;DHT22;10525;50.154;8.198;2022-10-31T08:54:50;15.10;99.90
20728;DHT22;10525;50.154;8.198;2022-10-31T08:57:17;15.30;99.90
20728;DHT22;10525;50.154;8.198;2022-10-31T08:59:45;15.40;99.90
20728;DHT22;10525;50.154;8.198;2022-10-31T09:02:11;15.70;99.90
20728;DHT22;10525;50.154;8.198;2022-10-31T09:04:38;15.80;99.90
20728;DHT22;10525;50.154;8.198;2022-10-31T09:07:05;15.90;99.90
20728;DHT22;10525;50.154;8.198;2022-10-31T09:09:31;16.10;99.90
20728;DHT22;10525;50.154;8.198;2022-10-31T09:11:58;16.10;99.90
20728;DHT22;10525;50.154;8.198;2022-10-31T09:14:25;16.20;99.90
20728;DHT22;10525;50.154;8.198;2022-10-31T09:16:53;16.30;99.90
20728;DHT22;10525;50.154;8.198;2022-10-31T09:19:20;16.40;99.90
20728;DHT22;10525;50.154;8.198;2022-10-31T09:21:47;16.50;99.90
20728;DHT22;10525;50.154;8.198;2022-10-31T09:24:13;16.50;99.90
20728;DHT22;10525;50.154;8.198;2022-10-31T09:26:40;16.50;99.90
20728;DHT22;10525;50.154;8.198;2022-10-31T09:29:07;16.60;99.90
20728;DHT22;10525;50.154;8.198;2022-10-31T09:31:35;16.60;99.90
20728;DHT22;10525;50.154;8.198;2022-10-31T09:34:03;16.70;99.90
20728;DHT22;10525;50.154;8.198;2022-10-31T09:36:30;16.70;99.90
20728;DHT22;10525;50.154;8.198;2022-10-31T09:38:57;16.70;99.90
20728;DHT22;10525;50.154;8.198;2022-10-31T09:41:30;16.70;99.90
20728;DHT22;10525;50.154;8.198;2022-10-31T09:44:04;16.80;99.90
20728;DHT22;10525;50.154;8.198;2022-10-31T09:46:37;17.00;99.90
20728;DHT22;10525;50.154;8.198;2022-10-31T09:49:27;17.10;99.90
20728;DHT22;10525;50.154;8.198;2022-10-31T09:52:01;17.10;99.90
20728;DHT22;10525;50.154;8.198;2022-10-31T09:54:35;17.20;99.90
20728;DHT22;10525;50.154;8.198;2022-10-31T09:57:05;17.30;99.90
20728;DHT22;10525;50.154;8.198;2022-10-31T09:59:35;17.30;99.90
20728;DHT22;10525;50.154;8.198;2022-10-31T10:02:06;17.40;99.90
20728;DHT22;10525;50.154;8.198;2022-10-31T10:04:43;17.30;99.90
20728;DHT22;10525;50.154;8.198;2022-10-31T10:07:17;17.30;99.90
20728;DHT22;10525;50.154;8.198;2022-10-31T10:09:45;17.30;99.90
20728;DHT22;10525;50.154;8.198;2022-10-31T10:12:16;17.20;99.90
20728;DHT22;10525;50.154;8.198;2022-10-31T10:14:54;17.20;99.90
20728;DHT22;10525;50.154;8.198;2022-10-31T10:17:33;17.30;99.90
20728;DHT22;10525;50.154;8.198;2022-10-31T10:20:14;17.40;99.90
20728;DHT22;10525;50.154;8.198;2022-10-31T10:22:49;17.50;99.90
20728;DHT22;10525;50.154;8.198;2022-10-31T10:25:22;17.70;99.90
20728;DHT22;10525;50.154;8.198;2022-10-31T10:28:02;17.80;99.90
20728;DHT22;10525;50.154;8.198;2022-10-31T10:30:33;17.70;99.90
20728;DHT22;10525;50.154;8.198;2022-10-31T10:33:05;17.80;99.90
20728;DHT22;10525;50.154;8.198;2022-10-31T10:35:40;17.80;99.90
20728;DHT22;10525;50.154;8.198;2022-10-31T10:38:13;17.90;99.90
20728;DHT22;10525;50.154;8.198;2022-10-31T10:40:41;17.90;99.90
20728;DHT22;10525;50.154;8.198;2022-10-31T10:43:18;17.90;99.90
20728;DHT22;10525;50.154;8.198;2022-10-31T10:45:50;17.90;99.90
20728;DHT22;10525;50.154;8.198;2022-10-31T10:48:42;17.90;99.90
20728;DHT22;10525;50.154;8.198;2022-10-31T10:51:22;17.90;99.90
20728;DHT22;10525;50.154;8.198;2022-10-31T10:54:10;18.00;99.90
20728;DHT22;10525;50.154;8.198;2022-10-31T10:56:49;18.20;99.90
20728;DHT22;10525;50.154;8.198;2022-10-31T10:59:20;18.30;99.90
20728;DHT22;10525;50.154;8.198;2022-10-31T11:01:49;18.30;99.90
20728;DHT22;10525;50.154;8.198;2022-10-31T11:04:28;18.40;99.90
20728;DHT22;10525;50.154;8.198;2022-10-31T11:07:03;18.50;99.90
20728;DHT22;10525;50.154;8.198;2022-10-31T11:09:30;18.50;99.90
20728;DHT22;10525;50.154;8.198;2022-10-31T11:11:58;18.60;99.90
20728;DHT22;10525;50.154;8.198;2022-10-31T11:14:26;18.60;99.90
20728;DHT22;10525;50.154;8.198;2022-10-31T11:17:06;18.40;99.90
20728;DHT22;10525;50.154;8.198;2022-10-31T11:19:33;18.40;99.90
20728;DHT22;10525;50.154;8.198;2022-10-31T11:22:08;18.60;99.90
20728;DHT22;10525;50.154;8.198;2022-10-31T11:24:39;18.50;99.90
20728;DHT22;10525;50.154;8.198;2022-10-31T11:27:14;18.50;99.90
20728;DHT22;10525;50.154;8.198;2022-10-31T11:29:41;18.40;99.90
20728;DHT22;10525;50.154;8.198;2022-10-31T11:32:17;18.40;99.90
20728;DHT22;10525;50.154;8.198;2022-10-31T11:34:45;18.40;99.90
20728;DHT22;10525;50.154;8.198;2022-10-31T11:37:15;18.40;99.90
20728;DHT22;10525;50.154;8.198;2022-10-31T11:39:44;18.30;99.90
20728;DHT22;10525;50.154;8.198;2022-10-31T11:42:14;18.20;99.90
20728;DHT22;10525;50.154;8.198;2022-10-31T11:44:42;18.30;99.90
20728;DHT22;10525;50.154;8.198;2022-10-31T11:47:13;18.40;99.90
20728;DHT22;10525;50.154;8.198;2022-10-31T11:49:42;18.40;99.90
20728;DHT22;10525;50.154;8.198;2022-10-31T11:52:15;18.50;99.90
20728;DHT22;10525;50.154;8.198;2022-10-31T11:54:48;18.60;99.90
20728;DHT22;10525;50.154;8.198;2022-10-31T11:57:23;18.60;99.90
20728;DHT22;10525;50.154;8.198;2022-10-31T11:59:51;18.80;99.90
20728;DHT22;10525;50.154;8.198;2022-10-31T12:02:20;18.80;99.90
20728;DHT22;10525;50.154;8.198;2022-10-31T12:04:52;18.80;99.90
20728;DHT22;10525;50.154;8.198;2022-10-31T12:07:22;18.90;99.90
20728;DHT22;10525;50.154;8.198;2022-10-31T12:09:49;19.00;99.90
20728;DHT22;10525;50.154;8.198;2022-10-31T12:12:37;18.70;99.90
20728;DHT22;10525;50.154;8.198;2022-10-31T12:15:25;18.60;99.90
20728;DHT22;10525;50.154;8.198;2022-10-31T12:18:17;18.50;99.90
20728;DHT22;10525;50.154;8.198;2022-10-31T12:20:54;18.50;99.90
20728;DHT22;10525;50.154;8.198;2022-10-31T12:23:29;18.40;99.90
20728;DHT22;10525;50.154;8.198;2022-10-31T12:26:09;18.60;99.90
20728;DHT22;10525;50.154;8.198;2022-10-31T12:28:51;18.70;99.90
20728;DHT22;10525;50.154;8.198;2022-10-31T12:31:33;18.70;99.90
20728;DHT22;10525;50.154;8.198;2022-10-31T12:34:28;18.80;99.90
20728;DHT22;10525;50.154;8.198;2022-10-31T12:37:02;18.80;99.90
20728;DHT22;10525;50.154;8.198;2022-10-31T12:39:39;18.60;99.90
20728;DHT22;10525;50.154;8.198;2022-10-31T12:42:15;18.70;99.90
20728;DHT22;10525;50.154;8.198;2022-10-31T12:45:07;18.80;99.90
20728;DHT22;10525;50.154;8.198;2022-10-31T12:47:47;18.90;99.90
20728;DHT22;10525;50.154;8.198;2022-10-31T12:50:27;18.90;99.90
20728;DHT22;10525;50.154;8.198;2022-10-31T12:53:02;19.10;99.90
20728;DHT22;10525;50.154;8.198;2022-10-31T12:55:54;19.30;99.90
20728;DHT22;10525;50.154;8.198;2022-10-31T12:58:25;19.30;99.90
20728;DHT22;10525;50.154;8.198;2022-10-31T13:01:03;19.40;99.90
20728;DHT22;10525;50.154;8.198;2022-10-31T13:03:35;19.20;99.90
20728;DHT22;10525;50.154;8.198;2022-10-31T13:06:09;19.20;99.90
20728;DHT22;10525;50.154;8.198;2022-10-31T13:08:41;19.10;99.90
20728;DHT22;10525;50.154;8.198;2022-10-31T13:11:15;19.00;99.90
20728;DHT22;10525;50.154;8.198;2022-10-31T13:13:49;18.90;99.90
20728;DHT22;10525;50.154;8.198;2022-10-31T13:16:18;18.70;99.90
20728;DHT22;10525;50.154;8.198;2022-10-31T13:18:49;18.50;99.90
20728;DHT22;10525;50.154;8.198;2022-10-31T13:21:21;18.40;99.90
20728;DHT22;10525;50.154;8.198;2022-10-31T13:23:50;18.30;99.90
20728;DHT22;10525;50.154;8.198;2022-10-31T13:26:24;18.20;99.90
20728;DHT22;10525;50.154;8.198;2022-10-31T13:29:02;18.00;99.90
20728;DHT22;10525;50.154;8.198;2022-10-31T13:31:33;17.90;99.90
20728;DHT22;10525;50.154;8.198;2022-10-31T13:34:03;17.90;99.90
20728;DHT22;10525;50.154;8.198;2022-10-31T13:36:36;18.00;99.90
20728;DHT22;10525;50.154;8.198;2022-10-31T13:39:16;18.10;99.90
20728;DHT22;10525;50.154;8.198;2022-10-31T13:41:49;18.20;99.90
20728;DHT22;10525;50.154;8.198;2022-10-31T13:44:20;18.20;99.90
20728;DHT22;10525;50.154;8.198;2022-10-31T13:46:47;18.30;99.90
20728;DHT22;10525;50.154;8.198;2022-10-31T13:49:25;18.10;99.90
20728;DHT22;10525;50.154;8.198;2022-10-31T13:51:52;18.10;99.90
20728;DHT22;10525;50.154;8.198;2022-10-31T13:54:22;18.00;99.90
20728;DHT22;10525;50.154;8.198;2022-10-31T13:56:51;18.00;99.90
20728;DHT22;10525;50.154;8.198;2022-10-31T13:59:21;17.90;99.90
20728;DHT22;10525;50.154;8.198;2022-10-31T14:01:51;17.80;99.90
20728;DHT22;10525;50.154;8.198;2022-10-31T14:04:21;17.70;99.90
20728;DHT22;10525;50.154;8.198;2022-10-31T14:06:54;17.60;99.90
20728;DHT22;10525;50.154;8.198;2022-10-31T14:09:28;17.50;99.90
20728;DHT22;10525;50.154;8.198;2022-10-31T14:12:01;17.50;99.90
20728;DHT22;10525;50.154;8.198;2022-10-31T14:14:34;17.40;99.90
20728;DHT22;10525;50.154;8.198;2022-10-31T14:17:02;17.40;99.90
20728;DHT22;10525;50.154;8.198;2022-10-31T14:19:29;17.40;99.90
20728;DHT22;10525;50.154;8.198;2022-10-31T14:21:56;17.40;99.90
20728;DHT22;10525;50.154;8.198;2022-10-31T14:24:35;17.40;99.90
20728;DHT22;10525;50.154;8.198;2022-10-31T14:29:46;17.30;99.90
20728;DHT22;10525;50.154;8.198;2022-10-31T14:32:19;17.30;99.90
20728;DHT22;10525;50.154;8.198;2022-10-31T14:34:53;17.30;99.90
20728;DHT22;10525;50.154;8.198;2022-10-31T14:37:30;17.30;99.90
20728;DHT22;10525;50.154;8.198;2022-10-31T14:43:02;17.40;99.90
20728;DHT22;10525;50.154;8.198;2022-10-31T14:45:40;17.50;99.90
20728;DHT22;10525;50.154;8.198;2022-10-31T14:48:33;17.50;99.90
20728;DHT22;10525;50.154;8.198;2022-10-31T14:51:07;17.50;99.90
20728;DHT22;10525;50.154;8.198;2022-10-31T14:53:42;17.50;99.90
20728;DHT22;10525;50.154;8.198;2022-10-31T14:56:11;17.70;99.90
20728;DHT22;10525;50.154;8.198;2022-10-31T14:58:41;17.60;99.90
20728;DHT22;10525;50.154;8.198;2022-10-31T15:01:19;17.70;99.90
20728;DHT22;10525;50.154;8.198;2022-10-31T15:03:47;17.50;99.90
20728;DHT22;10525;50.154;8.198;2022-10-31T15:06:16;17.50;99.90
20728;DHT22;10525;50.154;8.198;2022-10-31T15:08:45;17.40;99.90
20728;DHT22;10525;50.154;8.198;2022-10-31T15:11:15;17.20;99.90
20728;DHT22;10525;50.154;8.198;2022-10-31T15:13:45;17.10;99.90
20728;DHT22;10525;50.154;8.198;2022-10-31T15:16:14;17.00;99.90
20728;DHT22;10525;50.154;8.198;2022-10-31T15:18:48;16.80;99.90
20728;DHT22;10525;50.154;8.198;2022-10-31T15:21:16;16.70;99.90
20728;DHT22;10525;50.154;8.198;2022-10-31T15:23:43;16.50;99.90
20728;DHT22;10525;50.154;8.198;2022-10-31T15:26:15;16.30;99.90
20728;DHT22;10525;50.154;8.198;2022-10-31T15:28:45;16.20;99.90
20728;DHT22;10525;50.154;8.198;2022-10-31T15:31:16;16.10;99.90
20728;DHT22;10525;50.154;8.198;2022-10-31T15:33:49;16.10;99.90
20728;DHT22;10525;50.154;8.198;2022-10-31T15:36:19;16.00;99.90
20728;DHT22;10525;50.154;8.198;2022-10-31T15:38:46;16.00;99.90
20728;DHT22;10525;50.154;8.198;2022-10-31T15:41:23;16.00;99.90
20728;DHT22;10525;50.154;8.198;2022-10-31T15:43:52;16.00;99.90
20728;DHT22;10525;50.154;8.198;2022-10-31T15:46:19;15.90;99.90
20728;DHT22;10525;50.154;8.198;2022-10-31T15:48:47;15.80;99.90
20728;DHT22;10525;50.154;8.198;2022-10-31T15:51:14;15.80;99.90
20728;DHT22;10525;50.154;8.198;2022-10-31T15:53:44;15.70;99.90
20728;DHT22;10525;50.154;8.198;2022-10-31T15:56:18;15.70;99.90
20728;DHT22;10525;50.154;8.198;2022-10-31T15:58:48;15.70;99.90
20728;DHT22;10525;50.154;8.198;2022-10-31T16:01:24;15.60;99.90
20728;DHT22;10525;50.154;8.198;2022-10-31T16:03:59;15.60;99.90